This is the latest recevied weather packets stored in our database for station/object YB1DDK-2. If no packets are shown the sender has not sent any weather packets the latest 1 day(s).
| Time | Temp. | Humidity | Pressure | Rain* | Wind** | Luminosity | Snow |
|---|---|---|---|---|---|---|---|
| 1778103309 | 32.22° C | 73% | 1000 hPa | - | - | 0 W/m² | - |
| 1778102387 | 32.22° C | 72% | 1000 hPa | - | - | 0 W/m² | - |
| 1778101465 | 32.22° C | 72% | 1000 hPa | - | - | 0 W/m² | - |
| 1778099621 | 32.22° C | 73% | 1000 hPa | - | - | 0 W/m² | - |
| 1778098699 | 32.22° C | 74% | 1000 hPa | - | - | 0 W/m² | - |
| 1778097777 | 32.22° C | 74% | 1000 hPa | - | - | 0 W/m² | - |
| 1778096855 | 32.22° C | 74% | 1000 hPa | - | - | 0 W/m² | - |
| 1778094089 | 32.78° C | 74% | 1000 hPa | - | - | 0 W/m² | - |
| 1778093167 | 32.78° C | 74% | 1000 hPa | - | - | 0 W/m² | - |
| 1778091323 | 32.78° C | 73% | 1000 hPa | - | - | 0 W/m² | - |
| 1778086713 | 32.78° C | 73% | 1001 hPa | - | - | 0 W/m² | - |
| 1778084869 | 32.78° C | 73% | 1001 hPa | - | - | 0 W/m² | - |
| 1778075649 | 33.33° C | 70% | 1000 hPa | - | - | 0 W/m² | - |
| 1778073804 | 33.33° C | 70% | 1000 hPa | - | - | 0 W/m² | - |
| 1778072882 | 32.78° C | 69% | 1000 hPa | - | - | 0 W/m² | - |
| 1778071039 | 33.33° C | 67% | 1000 hPa | - | - | 0 W/m² | - |
| 1778070116 | 33.33° C | 66% | 1000 hPa | - | - | 0 W/m² | - |
| 1778067350 | 33.89° C | 63% | 999 hPa | - | - | 0 W/m² | - |
| 1778066428 | 33.89° C | 63% | 999 hPa | - | - | 0 W/m² | - |
| 1778065506 | 34.44° C | 62% | 998 hPa | - | - | 0 W/m² | - |
| 1778064584 | 34.44° C | 61% | 998 hPa | - | - | 0 W/m² | - |
| 1778063662 | 34.44° C | 61% | 998 hPa | - | - | 0 W/m² | - |
| 1778057208 | 35.56° C | 56% | 997 hPa | - | - | 0 W/m² | - |
| 1778051675 | 37.22° C | 48% | 997 hPa | - | - | 0 W/m² | - |
| 1778049832 | 36.67° C | 49% | 998 hPa | - | - | 0 W/m² | - |
* Rain since midnight (hover to see other rain measurements)
** Current wind speed in m/s (hover to see current wind gust speed)